createdAt,value
2022-11-05T00:00:36.021Z,9.12
2022-11-05T00:03:20.896Z,9.13
2022-11-05T00:06:10.229Z,9.25
2022-11-05T00:08:56.030Z,9.34
2022-11-05T00:11:42.626Z,9.32
2022-11-05T00:14:27.747Z,9.15
2022-11-05T00:16:54.269Z,9.09
2022-11-05T00:19:20.710Z,9.03
2022-11-05T00:22:07.422Z,9.01
2022-11-05T00:24:52.333Z,9.07
2022-11-05T00:27:18.831Z,9.16
2022-11-05T00:29:54.433Z,9.13
2022-11-05T00:32:26.586Z,9.16
2022-11-05T00:34:53.156Z,9.15
2022-11-05T00:37:19.761Z,9.04
2022-11-05T00:39:46.199Z,8.84
2022-11-05T00:42:31.127Z,8.66
2022-11-05T00:45:03.450Z,8.66
2022-11-05T00:47:49.879Z,8.57
2022-11-05T00:50:16.471Z,8.46
2022-11-05T00:52:59.618Z,8.47
2022-11-05T00:55:39.567Z,8.53
2022-11-05T00:58:11.974Z,8.45
2022-11-05T01:00:40.755Z,8.58
2022-11-05T01:03:10.610Z,8.72
2022-11-05T01:05:46.303Z,8.75
2022-11-05T01:08:14.006Z,8.80
2022-11-05T01:10:47.993Z,8.75
2022-11-05T01:13:18.396Z,8.72
2022-11-05T01:15:46.108Z,8.89
2022-11-05T01:18:13.173Z,8.95
2022-11-05T01:20:40.069Z,8.99
2022-11-05T01:23:10.388Z,9.09
2022-11-05T01:25:39.685Z,9.09
2022-11-05T01:28:06.834Z,9.07
2022-11-05T01:30:33.208Z,9.02
2022-11-05T01:32:59.579Z,8.86
2022-11-05T01:35:25.961Z,8.70
2022-11-05T01:37:52.341Z,8.58
2022-11-05T01:40:23.364Z,8.61
2022-11-05T01:42:49.707Z,8.66
2022-11-05T01:45:21.189Z,8.60
2022-11-05T01:48:07.815Z,8.45
2022-11-05T01:50:43.343Z,8.44
2022-11-05T01:53:15.687Z,8.39
2022-11-05T01:55:47.888Z,8.42
2022-11-05T01:58:20.101Z,8.43
2022-11-05T02:00:47.363Z,8.42
2022-11-05T02:03:16.543Z,8.32
2022-11-05T02:05:43.655Z,8.33
2022-11-05T02:08:17.736Z,8.28
2022-11-05T02:10:45.628Z,8.22
2022-11-05T02:13:12.504Z,8.25
2022-11-05T02:15:56.725Z,8.26
2022-11-05T02:18:38.513Z,8.28
2022-11-05T02:21:28.467Z,8.25
2022-11-05T02:24:08.541Z,8.24
2022-11-05T02:26:43.664Z,8.25
2022-11-05T02:29:38.866Z,8.27
2022-11-05T02:32:19.979Z,8.38
2022-11-05T02:34:55.041Z,8.58
2022-11-05T02:37:27.425Z,8.70
2022-11-05T02:40:35.937Z,8.78
2022-11-05T02:43:24.581Z,8.77
2022-11-05T02:46:09.968Z,8.83
2022-11-05T02:48:55.425Z,8.83
2022-11-05T02:51:45.148Z,8.83
2022-11-05T02:54:20.106Z,8.84
2022-11-05T02:56:50.028Z,8.86
2022-11-05T02:59:16.434Z,8.93
2022-11-05T03:01:45.466Z,8.99
2022-11-05T03:04:15.307Z,8.98
2022-11-05T03:06:55.014Z,8.94
2022-11-05T03:09:46.434Z,8.75
2022-11-05T03:12:22.132Z,8.66
2022-11-05T03:15:03.681Z,8.68
2022-11-05T03:18:04.869Z,8.74
2022-11-05T03:20:52.531Z,8.76
2022-11-05T03:23:31.089Z,8.85
2022-11-05T03:26:20.104Z,8.94
2022-11-05T03:28:52.392Z,8.83
2022-11-05T03:31:22.077Z,8.93
2022-11-05T03:33:52.118Z,8.97
2022-11-05T03:36:27.347Z,9.00
2022-11-05T03:38:56.275Z,9.02
2022-11-05T03:41:25.254Z,8.96
2022-11-05T03:43:59.416Z,8.94
2022-11-05T03:46:36.156Z,8.84
2022-11-05T03:49:05.966Z,8.65
2022-11-05T03:51:35.403Z,8.55
2022-11-05T03:54:03.567Z,8.53
2022-11-05T03:56:48.892Z,8.45
2022-11-05T03:59:16.944Z,8.43
2022-11-05T04:01:44.112Z,8.42
2022-11-05T04:04:10.810Z,8.38
2022-11-05T04:06:55.452Z,8.38
2022-11-05T04:09:40.194Z,8.30
2022-11-05T04:12:25.463Z,8.35
2022-11-05T04:14:51.905Z,8.36
2022-11-05T04:17:19.440Z,8.40
2022-11-05T04:20:04.516Z,8.38
2022-11-05T04:22:51.182Z,8.39
2022-11-05T04:25:18.820Z,8.41
2022-11-05T04:27:46.074Z,8.44
2022-11-05T04:30:21.420Z,8.42
2022-11-05T04:33:03.559Z,8.39
2022-11-05T04:35:36.065Z,8.50
2022-11-05T04:38:08.190Z,8.60
2022-11-05T04:40:34.774Z,8.52
2022-11-05T04:43:01.376Z,8.52
2022-11-05T04:45:30.837Z,8.43
2022-11-05T04:47:57.331Z,8.40
2022-11-05T04:50:23.859Z,8.35
2022-11-05T04:52:50.343Z,8.27
2022-11-05T04:55:17.173Z,8.29
2022-11-05T04:57:43.764Z,8.34
2022-11-05T05:00:11.034Z,8.28
2022-11-05T05:02:37.676Z,8.39
2022-11-05T05:05:05.105Z,8.37
2022-11-05T05:07:32.529Z,8.41
2022-11-05T05:09:59.145Z,8.45
2022-11-05T05:12:25.561Z,8.44
2022-11-05T05:14:52.053Z,8.40
2022-11-05T05:17:18.626Z,8.39
2022-11-05T05:20:03.586Z,8.46
2022-11-05T05:22:30.064Z,8.47
2022-11-05T05:24:56.756Z,8.45
2022-11-05T05:27:24.384Z,8.45
2022-11-05T05:29:50.915Z,8.48
2022-11-05T05:32:17.396Z,8.42
2022-11-05T05:34:44.107Z,8.42
2022-11-05T05:37:10.627Z,8.40
2022-11-05T05:39:37.035Z,8.45
2022-11-05T05:42:03.555Z,8.48
2022-11-05T05:44:29.977Z,8.47
2022-11-05T05:46:56.515Z,8.46
2022-11-05T05:49:22.971Z,8.48
2022-11-05T05:51:49.835Z,8.41
2022-11-05T05:54:16.649Z,8.38
2022-11-05T05:56:44.515Z,8.41
2022-11-05T05:59:11.322Z,8.47
2022-11-05T06:01:38.281Z,8.47
2022-11-05T06:04:05.063Z,8.55
2022-11-05T06:06:31.548Z,8.59
2022-11-05T06:08:58.120Z,8.64
2022-11-05T06:11:25.175Z,8.53
2022-11-05T06:13:51.838Z,8.52
2022-11-05T06:16:19.446Z,8.51
2022-11-05T06:18:46.919Z,8.54
2022-11-05T06:21:15.856Z,8.54
2022-11-05T06:23:44.770Z,8.60
2022-11-05T06:26:15.190Z,8.58
2022-11-05T06:28:42.479Z,8.57
2022-11-05T06:31:11.086Z,8.68
2022-11-05T06:33:38.335Z,8.78
2022-11-05T06:36:08.307Z,8.84
2022-11-05T06:38:36.270Z,8.98
2022-11-05T06:41:09.855Z,9.00
2022-11-05T06:43:36.770Z,8.85
2022-11-05T06:46:03.730Z,8.62
2022-11-05T06:48:30.468Z,8.70
2022-11-05T06:50:57.277Z,8.77
2022-11-05T06:53:24.266Z,8.75
2022-11-05T06:55:51.102Z,8.75
2022-11-05T06:58:17.583Z,8.69
2022-11-05T07:00:44.099Z,8.55
2022-11-05T07:03:12.279Z,8.46
2022-11-05T07:05:43.927Z,8.50
2022-11-05T07:08:10.728Z,8.54
2022-11-05T07:10:37.310Z,8.57
2022-11-05T07:13:08.043Z,8.64
2022-11-05T07:15:35.403Z,8.74
2022-11-05T07:18:02.264Z,8.79
2022-11-05T07:20:33.779Z,8.82
2022-11-05T07:23:05.478Z,8.98
2022-11-05T07:25:33.808Z,9.07
2022-11-05T07:28:01.256Z,9.11
2022-11-05T07:30:29.087Z,9.21
2022-11-05T07:32:55.823Z,9.23
2022-11-05T07:35:23.167Z,9.26
2022-11-05T07:37:51.791Z,9.19
2022-11-05T07:40:22.069Z,9.44
2022-11-05T07:42:51.443Z,9.47
2022-11-05T07:45:18.626Z,9.44
2022-11-05T07:47:47.784Z,9.49
2022-11-05T07:50:15.910Z,9.38
2022-11-05T07:52:42.545Z,9.36
2022-11-05T07:55:10.481Z,9.31
2022-11-05T07:57:44.730Z,9.48
2022-11-05T08:00:14.325Z,9.56
2022-11-05T08:02:42.093Z,9.52
2022-11-05T08:05:10.204Z,9.51
2022-11-05T08:07:36.838Z,9.61
2022-11-05T08:10:06.315Z,9.68
2022-11-05T08:12:33.566Z,9.65
2022-11-05T08:15:00.323Z,9.60
2022-11-05T08:17:27.360Z,9.54
2022-11-05T08:19:54.152Z,9.52
2022-11-05T08:22:21.071Z,9.36
2022-11-05T08:24:47.723Z,9.21
2022-11-05T08:27:14.395Z,9.17
2022-11-05T08:29:41.016Z,9.23
2022-11-05T08:32:07.708Z,9.14
2022-11-05T08:34:34.697Z,9.18
2022-11-05T08:37:02.292Z,9.24
2022-11-05T08:39:29.242Z,9.26
2022-11-05T08:41:55.854Z,9.36
2022-11-05T08:44:22.503Z,9.33
2022-11-05T08:46:49.229Z,9.43
2022-11-05T08:49:16.059Z,9.57
2022-11-05T08:51:47.237Z,9.58
2022-11-05T08:54:13.857Z,9.65
2022-11-05T08:56:40.600Z,9.76
2022-11-05T08:59:07.513Z,9.62
2022-11-05T09:01:34.861Z,9.64
2022-11-05T09:04:01.797Z,9.79
2022-11-05T09:06:29.067Z,9.92
2022-11-05T09:08:56.030Z,9.99
2022-11-05T09:11:29.373Z,9.88
2022-11-05T09:14:09.166Z,9.66
2022-11-05T09:16:37.075Z,9.70
2022-11-05T09:19:04.654Z,9.62
2022-11-05T09:21:31.554Z,9.76
2022-11-05T09:23:58.816Z,10.00
2022-11-05T09:26:25.339Z,10.08
2022-11-05T09:28:51.971Z,10.18
2022-11-05T09:31:18.804Z,10.34
2022-11-05T09:33:45.434Z,10.35
2022-11-05T09:36:11.913Z,10.52
2022-11-05T09:38:38.587Z,10.43
2022-11-05T09:41:08.584Z,10.15
2022-11-05T09:43:44.298Z,10.26
2022-11-05T09:46:41.175Z,10.51
2022-11-05T09:49:24.674Z,10.60
2022-11-05T09:51:54.081Z,10.71
2022-11-05T09:54:29.385Z,10.78
2022-11-05T09:56:56.699Z,10.40
2022-11-05T09:59:47.652Z,10.35
2022-11-05T10:02:22.284Z,10.29
2022-11-05T10:04:52.966Z,10.13
2022-11-05T10:07:24.903Z,10.10
2022-11-05T10:10:03.120Z,10.20
2022-11-05T10:12:51.214Z,10.10
2022-11-05T10:15:27.693Z,10.05
2022-11-05T10:18:12.904Z,10.10
2022-11-05T10:20:39.810Z,10.25
2022-11-05T10:23:13.926Z,10.51
2022-11-05T10:25:51.600Z,10.91
2022-11-05T10:28:19.591Z,11.24
2022-11-05T10:30:49.194Z,11.19
2022-11-05T10:33:29.991Z,11.38
2022-11-05T10:36:03.580Z,11.41
2022-11-05T10:38:30.705Z,11.26
2022-11-05T10:41:35.390Z,11.00
2022-11-05T10:44:31.071Z,10.94
2022-11-05T10:47:07.326Z,10.96
2022-11-05T10:50:01.847Z,11.24
2022-11-05T10:52:37.878Z,11.19
2022-11-05T10:55:26.998Z,11.15
2022-11-05T10:57:54.156Z,11.06
2022-11-05T11:00:24.212Z,11.04
2022-11-05T11:02:54.427Z,11.02
2022-11-05T11:05:25.763Z,10.77
2022-11-05T11:07:59.426Z,10.66
2022-11-05T11:10:26.655Z,10.68
2022-11-05T11:12:54.969Z,10.61
2022-11-05T11:15:29.319Z,10.61
2022-11-05T11:17:56.593Z,10.58
2022-11-05T11:20:27.732Z,10.48
2022-11-05T11:23:03.974Z,10.32
2022-11-05T11:25:46.197Z,10.37
2022-11-05T11:28:34.755Z,10.50
2022-11-05T11:31:04.786Z,10.57
2022-11-05T11:33:35.999Z,10.55
2022-11-05T11:36:03.389Z,10.66
2022-11-05T11:38:37.582Z,10.82
2022-11-05T11:41:25.349Z,11.19
2022-11-05T11:43:57.176Z,11.49
2022-11-05T11:46:23.874Z,11.40
2022-11-05T11:48:51.395Z,11.55
2022-11-05T11:51:40.900Z,11.74
2022-11-05T11:54:20.065Z,11.49
2022-11-05T11:56:48.299Z,11.37
2022-11-05T11:59:40.585Z,11.40
2022-11-05T12:02:25.277Z,11.38
2022-11-05T12:05:25.168Z,11.36
2022-11-05T12:07:59.483Z,11.40
2022-11-05T12:10:41.464Z,11.45
2022-11-05T12:13:20.540Z,11.15
2022-11-05T12:15:59.432Z,11.20
2022-11-05T12:18:44.299Z,11.45
2022-11-05T12:21:52.593Z,11.59
2022-11-05T12:24:30.600Z,11.74
2022-11-05T12:27:05.676Z,11.72
2022-11-05T12:29:43.911Z,11.67
2022-11-05T12:32:22.556Z,11.58
2022-11-05T12:34:58.414Z,11.50
2022-11-05T12:37:43.924Z,11.55
2022-11-05T12:40:29.229Z,11.78
2022-11-05T12:43:31.488Z,11.78
2022-11-05T12:46:33.715Z,11.79
2022-11-05T12:49:00.419Z,11.57
2022-11-05T12:51:45.539Z,11.62
2022-11-05T12:54:48.590Z,11.69
2022-11-05T12:57:18.032Z,11.61
2022-11-05T13:00:11.566Z,11.33
2022-11-05T13:03:12.404Z,11.40
2022-11-05T13:05:44.049Z,11.42
2022-11-05T13:08:19.142Z,11.09
2022-11-05T13:11:10.955Z,11.07
2022-11-05T13:13:42.856Z,10.90
2022-11-05T13:16:26.410Z,10.92
2022-11-05T13:18:58.332Z,10.80
2022-11-05T13:21:30.410Z,10.90
2022-11-05T13:24:04.793Z,10.97
2022-11-05T13:26:38.156Z,11.04
2022-11-05T13:29:23.466Z,11.02
2022-11-05T13:31:57.828Z,10.88
2022-11-05T13:34:24.540Z,10.96
2022-11-05T13:37:17.810Z,11.02
2022-11-05T13:39:50.800Z,10.91
2022-11-05T13:42:37.183Z,10.90
2022-11-05T13:45:38.151Z,10.86
2022-11-05T13:48:33.479Z,10.84
2022-11-05T13:51:12.884Z,10.88
2022-11-05T13:53:56.574Z,10.88
2022-11-05T13:56:32.631Z,10.94
2022-11-05T14:02:03.473Z,11.13
2022-11-05T14:04:38.946Z,11.35
2022-11-05T14:07:08.880Z,11.42
2022-11-05T14:09:38.078Z,11.31
2022-11-05T14:12:07.543Z,11.32
2022-11-05T14:14:45.752Z,11.22
2022-11-05T18:02:57.774Z,10.39
2022-11-05T18:05:25.168Z,10.33
2022-11-05T18:07:52.379Z,10.36
2022-11-05T18:10:22.298Z,10.50
2022-11-05T18:12:49.648Z,10.44
2022-11-05T18:15:17.383Z,10.41
2022-11-05T18:17:47.203Z,10.32
2022-11-05T18:20:18.851Z,10.20
2022-11-05T18:22:49.266Z,10.20
2022-11-05T18:25:17.472Z,10.25
2022-11-05T18:30:26.191Z,10.24
2022-11-05T18:32:54.933Z,10.33
2022-11-05T18:35:23.453Z,10.26
2022-11-05T18:37:54.303Z,10.12
2022-11-05T18:40:21.207Z,10.08
2022-11-05T18:42:48.040Z,10.06
2022-11-05T18:45:15.502Z,10.14
2022-11-05T18:48:31.344Z,9.94
2022-11-05T18:51:27.579Z,9.95
2022-11-05T18:53:58.058Z,10.01
2022-11-05T18:56:26.256Z,10.04
2022-11-05T18:59:14.752Z,10.02
2022-11-05T19:01:41.806Z,10.05
2022-11-05T19:04:10.454Z,10.05
2022-11-05T19:06:42.249Z,10.05
2022-11-05T19:09:22.989Z,10.06
2022-11-05T19:11:50.679Z,9.96
2022-11-05T19:14:17.728Z,9.99
2022-11-05T19:16:47.564Z,9.89
2022-11-05T19:19:15.277Z,9.87
2022-11-05T19:21:45.733Z,9.75
2022-11-05T19:24:17.440Z,9.61
2022-11-05T19:26:45.014Z,9.64
2022-11-05T19:29:18.615Z,9.61
2022-11-05T19:31:46.483Z,9.63
2022-11-05T19:34:15.004Z,9.62
2022-11-05T19:36:43.090Z,9.59
2022-11-05T19:39:13.837Z,9.62
2022-11-05T19:41:41.281Z,9.57
2022-11-05T19:44:09.094Z,9.54
2022-11-05T19:46:38.482Z,9.48
2022-11-05T19:49:05.874Z,9.45
2022-11-05T19:51:36.168Z,9.36
2022-11-05T19:54:04.184Z,9.26
2022-11-05T19:56:34.847Z,9.29
2022-11-05T19:59:03.608Z,9.25
2022-11-05T20:01:30.971Z,9.23
2022-11-05T20:04:00.773Z,9.18
2022-11-05T20:06:34.303Z,9.06
2022-11-05T20:11:57.661Z,9.02
2022-11-05T20:14:26.063Z,8.94
2022-11-05T20:16:53.996Z,8.84
2022-11-05T20:19:22.616Z,8.96
2022-11-05T20:21:49.815Z,9.18
2022-11-05T20:24:24.141Z,9.27
2022-11-05T20:26:56.223Z,9.23
2022-11-05T20:29:24.580Z,9.36
2022-11-05T20:31:53.164Z,9.20
2022-11-05T20:34:20.322Z,9.14
2022-11-05T20:36:47.641Z,9.24
2022-11-05T20:39:14.517Z,9.24
2022-11-05T20:41:42.149Z,9.20
2022-11-05T20:44:09.139Z,9.16
2022-11-05T20:46:35.873Z,9.12
2022-11-05T20:49:03.409Z,9.12
2022-11-05T20:51:30.708Z,9.24
2022-11-05T20:54:01.746Z,9.01
2022-11-05T20:56:31.077Z,9.02
2022-11-05T20:58:59.553Z,9.12
2022-11-05T21:01:31.683Z,8.94
2022-11-05T21:03:59.771Z,8.89
2022-11-05T21:06:27.871Z,8.92
2022-11-05T21:08:59.282Z,8.94
2022-11-05T21:11:25.838Z,8.87
2022-11-05T21:13:52.451Z,8.82
2022-11-05T21:16:20.088Z,8.77
2022-11-05T21:18:47.494Z,8.74
2022-11-05T21:21:19.648Z,8.75
2022-11-05T21:23:46.864Z,8.82
2022-11-05T21:26:14.698Z,8.78
2022-11-05T21:28:42.311Z,8.80
2022-11-05T21:31:09.176Z,8.83
2022-11-05T21:33:36.088Z,8.96
2022-11-05T21:36:11.924Z,9.08
2022-11-05T21:38:39.230Z,9.13
2022-11-05T21:41:07.225Z,9.13
2022-11-05T21:43:34.127Z,9.10
2022-11-05T21:46:02.582Z,9.01
2022-11-05T21:48:29.907Z,9.00
2022-11-05T21:51:15.024Z,9.08
2022-11-05T21:54:00.182Z,8.95
2022-11-05T21:56:45.624Z,8.94
2022-11-05T21:59:34.770Z,8.87
2022-11-05T22:02:02.137Z,8.75
2022-11-05T22:04:30.379Z,8.67
2022-11-05T22:06:57.705Z,8.63
2022-11-05T22:09:25.351Z,8.56
2022-11-05T22:11:52.282Z,8.58
2022-11-05T22:14:19.270Z,8.54
2022-11-05T22:16:46.487Z,8.47
2022-11-05T22:19:13.185Z,8.43
2022-11-05T22:21:39.943Z,8.38
2022-11-05T22:24:07.679Z,8.30
2022-11-05T22:26:35.246Z,8.35
2022-11-05T22:29:02.072Z,8.44
2022-11-05T22:31:34.773Z,8.48
2022-11-05T22:34:03.111Z,8.36
2022-11-05T22:36:30.310Z,8.34
2022-11-05T22:38:56.923Z,8.27
2022-11-05T22:41:23.778Z,8.25
2022-11-05T22:43:50.500Z,8.22
2022-11-05T22:46:20.353Z,8.25
2022-11-05T22:48:47.655Z,8.19
2022-11-05T22:51:17.440Z,8.16
2022-11-05T22:53:44.597Z,8.14
2022-11-05T22:56:14.541Z,8.12
2022-11-05T22:58:41.666Z,8.07
2022-11-05T23:01:11.963Z,8.04
2022-11-05T23:03:40.723Z,8.03
2022-11-05T23:06:34.725Z,8.05
2022-11-05T23:09:21.187Z,8.09
2022-11-05T23:11:50.710Z,8.00
2022-11-05T23:14:17.765Z,7.94
2022-11-05T23:17:03.715Z,7.84
2022-11-05T23:19:50.545Z,7.80
2022-11-05T23:22:42.063Z,7.77
2022-11-05T23:25:12.532Z,7.76
2022-11-05T23:27:41.219Z,7.69
2022-11-05T23:30:12.015Z,7.62
2022-11-05T23:32:39.394Z,7.61
2022-11-05T23:35:06.973Z,7.62
2022-11-05T23:37:51.995Z,7.64
2022-11-05T23:40:28.363Z,7.62
2022-11-05T23:43:14.388Z,7.58
2022-11-05T23:46:02.041Z,7.46
2022-11-05T23:48:37.291Z,7.39
2022-11-05T23:51:12.759Z,7.40
2022-11-05T23:53:41.558Z,7.39
2022-11-05T23:56:11.267Z,7.37
2022-11-05T23:58:40.162Z,7.42
